Alpena County Regional Airport
KAPN : now visible

Airfield :











YOU CAN JOIN US ON...

 
LOGIN :

Register | Disclaimer

   EN    FR    IT 

 









Legend :    VFR   Marginal VFR   IFR   Intensive IFR   Very Intensive IFR
Visi :
Ceiling :
>= 8 km
>= 3000ft
5 to 8 km
1000 to 3000 ft
1500m to 5 km
500 to 1000 ft
800 to 1500m
200 to 500 ft
< 800m
< 200 ft
Symbols :   Thunderstorms  Fog  Heavy snow  Heavy precipitations  Wind > 20 kt






- Airport Elevation : 690 ft
- IATA code : APN


KAPN - Alpena County Regional

CURRENT METAR :
  • 120254Z AUTO 24006KT 10SM CLR M11/M15 A3044 RMK AO2 SLP324 T11111150 51014

EXPIRED METARs :
  • 120154Z AUTO 24006KT 10SM CLR M11/M15 A3043 RMK AO2 SLP320 T11061150
  • 120054Z AUTO 24007KT 10SM BKN037 M11/M15 A3042 RMK AO2 SLP317 T11061150

TAF KAPN
Valid from the 12 at 00:00 until the 13 at 00:00 UTC


112334Z 1200/1224 25011G18KT P6SM BKN035
FM120200 26008KT P6SM SCT035
FM121000 VRB03KT P6SM OVC060
FM121400 20005KT P6SM -SN OVC045
FM121900 16006KT P6SM -SN OVC035
FM122100 15010G19KT 4SM -SN OVC035



MET'MAP, your aeronautical weather chart ! - Copyright ORBIFLY December 2007 - Disclaimer

ORBIFLY MET'MAP TEAM :

Programming & Development : Alexandra Zaïnal
Concept & original design : Baudouin d'Aumeries
Assistance for programming : Marc-Olivier Méhu
Technical & hardware support : Manuel Goepfert

Contact : metmap@orbifly.com




SOURCES & CREDITS :

   NOAA       Earth
Advisory